• Join FlightAware (Why Join?)
  • Login
  • US Flag 
09:36PM EST


 

Airport Tracker/Info


-or-


 

Live Flight TrackerFlight Track Log ✈ CCA4462 ✈ 24-Feb-2014 ✈ ZUZH / PZI - ZUUU / CTU

Flight Track Log - Related Links

Times and Time Zones

All times are in EST time to prevent confusion due to time zone crossing. See the CCA4462 flight status page for this flight to view local times or setup timezone preferences in your user account.

Time Position Orientation Groundspeed Altitude Reporting Facility
EST Latitude Longitude Course Direction KTS MPH feet Rate Location/Type
09:01PM 26.8161 101.9403 25° Northeast  Level Estimated
09:02PM 26.9081 101.9875 25° Northeast  Level Estimated
09:03PM 27.0001 102.0348 25° Northeast  Level Estimated
09:04PM 27.0921 102.0822 25° Northeast  Level Estimated
09:05PM 27.1841 102.1297 25° Northeast  Level Estimated
09:06PM 27.2760 102.1772 25° Northeast  Level Estimated
09:07PM 27.3680 102.2249 25° Northeast  Level Estimated
09:08PM 27.4599 102.2726 25° Northeast  Level Estimated
09:09PM 27.5518 102.3204 25° Northeast  Level Estimated
09:10PM 27.6437 102.3682 25° Northeast  Level Estimated
09:11PM 27.7355 102.4162 25° Northeast  Level Estimated
09:12PM 27.8274 102.4642 25° Northeast  Level Estimated
09:13PM 27.9192 102.5123 25° Northeast  Level Estimated
09:14PM 28.0110 102.5605 25° Northeast  Level Estimated
09:15PM 28.1028 102.6088 25° Northeast  Level Estimated
09:16PM 28.1946 102.6572 25° Northeast  Level Estimated
09:17PM 28.2864 102.7056 25° Northeast  Level Estimated
09:18PM 28.3781 102.7541 25° Northeast  Level Estimated
09:19PM 28.4699 102.8027 25° Northeast  Level Estimated
09:20PM 28.5616 102.8514 25° Northeast  Level Estimated
09:21PM 28.6533 102.9002 25° Northeast  Level Estimated
09:22PM 28.7449 102.9491 25° Northeast  Level Estimated
09:23PM 28.8366 102.9980 25° Northeast  Level Estimated
09:24PM 28.9282 103.0470 25° Northeast  Level Estimated
09:25PM 29.0199 103.0962 25° Northeast  Level Estimated
09:26PM 29.1115 103.1454 25° Northeast  Level Estimated
09:27PM 29.2031 103.1947 25° Northeast  Level Estimated
09:28PM 29.2946 103.2440 25° Northeast  Level Estimated
09:29PM 29.3862 103.2935 25° Northeast  Level Estimated
09:30PM 29.4777 103.3431 25° Northeast  Level Estimated
09:31PM 29.5693 103.3927 25° Northeast  Level Estimated
09:32PM 29.6608 103.4425 25° Northeast  Level Estimated
09:33PM 29.7522 103.4923 25° Northeast  Level Estimated
09:34PM 29.8437 103.5422 25° Northeast  Level Estimated
09:35PM 29.9351 103.5922 25° Northeast  Level Estimated
09:36PM 30.0266 103.6424 25° Northeast  Level Estimated
09:37PM 30.1180 103.6926 25° Northeast  Level Estimated
09:38PM 30.2094 103.7429 25° Northeast  Level Estimated
09:39PM 30.3007 103.7932 25° Northeast  Level Estimated
09:40PM 30.3921 103.8437 25° Northeast  Level Estimated
09:41PM 30.4834 103.8943 26° Northeast  Level Estimated
09:42PM 30.5747 103.9450 26° Northeast  Level Estimated
09:43PM 30.5785 103.9471 26° Northeast  Level Estimated
09:44PM 30.5785 103.9471 240° Southwest  Level Estimated
09:45PM 30.5785 103.9471 240° Southwest  Level Estimated
09:46PM 30.5785 103.9471 240° Southwest  Level Estimated
09:47PM 30.5785 103.9471 240° Southwest  Level Estimated
09:48PM 30.5785 103.9471 240° Southwest  Level Estimated
09:49PM 30.5785 103.9471 240° Southwest  Level Estimated
09:50PM 30.5785 103.9471 240° Southwest  Level Estimated
09:51PM 30.5785 103.9471 240° Southwest  Level Estimated
09:52PM 30.5785 103.9471 240° Southwest  Level Estimated
09:53PM 30.5785 103.9471 240° Southwest  Level Estimated
09:54PM 30.5785 103.9471 240° Southwest  Level Estimated
09:55PM 30.5785 103.9471 240° Southwest  Level Estimated
09:56PM 30.5785 103.9471 240° Southwest  Level Estimated
09:57PM 30.5785 103.9471 240° Southwest  Level Estimated
09:58PM 30.5785 103.9471 240° Southwest  Level Estimated